メインページ
METAR-TAF:

METAR-TAF

空港 :

ナタール, リオグランデ・ド・ノルテ州, ブラジル

緯度: 05-46-05S, 経度: 035-22-34W, 海抜: 88m

現時点の気象観測

当レポートは26分前の06:00(UTC)に作成
の風 4kt、南/南東から南西の間で変化する
気温 23°C
湿度 94%
気圧 1013 hPa
視程10km以上
高度2200ftの雲は散在している
高度5000ftの雲は散在している

METAR: SBSG 140600Z 17004KT 150V220 9999 SCT022 SCT050 23/22 Q1013

時間: 03:26 (06:26 UTC)

予報

当レポートは2時間26分前の04:00(UTC)に作成
予報は14日の 06時(UTC)から 15日の 06時(UTC)まで有効
の風 5kt
視程10km以上
高度2000ftの雲は散在している
14日の 09時(UTC)から 14日の 11時(UTC)まで徐々に
南/南東の風 14kt
高度2500ftの千切れ雲あり
14日の 13時(UTC)から 14日の 15時(UTC)まで徐々に
高度3000ftの雲は散在している
14日の 21時(UTC)から 14日の 22時(UTC)まで徐々に
視程: 1500m
15日の 01時(UTC)から 15日の 02時(UTC)まで徐々に
の風 7kt

TAF: SBSG 140400Z 1406/1506 19005KT 9999 SCT020 TN24/1407Z TX31/1415Z BECMG 1409/1411 15014KT BKN025 BECMG 1413/1415 SCT030 BECMG 1421/1422 1500 9KT BECMG 1501/1502 17007KT RMK PEU

4,000以上の空港の気象観測と天気予報(METAR報とTAF報)

利用可能な観測所は地図上に黄色い丸と赤い丸で示す。

丸の上にカーソルを重ねると観測所名を参照できる。

次にクリックすると気象観測と天気予報を参照できる。

マップの切り替え:黒色「×」印の緑ボタンをクリックして拡大、「-」印の緑ボタンをクリックして縮小、緑色の三角印をクリックして隣りの地図に切り替え


METAR-TAF: